Time;durP1;ratioP1;P1;durP2;ratioP2;P2;SDS_P1;SDS_P2;PMS_P1;PMS_P2;Temp;Humidity;BMP_temperature;BMP_pressure;BME280_temperature;BME280_humidity;BME280_pressure;Samples;Min_cycle;Max_cycle;Signal;HPM_P1;HPM_P2
2022/10/04 00:00:36;;;;;;;109.78;43.63;;;12.00;99.90;;;;;;5035437;28;20468;-73
2022/10/04 00:03:26;;;;;;;108.30;44.25;;;12.10;99.90;;;;;;5034308;28;20440;-73
2022/10/04 00:05:56;;;;;;;115.90;44.53;;;12.20;99.90;;;;;;5045826;28;20061;-73
2022/10/04 00:08:36;;;;;;;104.50;44.30;;;12.30;99.90;;;;;;5054012;28;20049;-73
2022/10/04 00:11:11;;;;;;;101.38;43.15;;;12.30;99.90;;;;;;5054977;28;20513;-73
2022/10/04 00:13:45;;;;;;;107.88;43.95;;;12.40;99.90;;;;;;5055141;28;20053;-73
2022/10/04 00:16:33;;;;;;;106.45;43.65;;;12.50;99.90;;;;;;5054021;28;20048;-73
2022/10/04 00:19:37;;;;;;;112.57;45.40;;;12.60;99.90;;;;;;5053979;28;20423;-73
2022/10/04 00:22:09;;;;;;;107.13;43.42;;;12.70;99.90;;;;;;5054202;28;20041;-73
2022/10/04 00:24:37;;;;;;;106.32;43.65;;;12.80;99.90;;;;;;5055163;28;20041;-73
2022/10/04 00:27:25;;;;;;;97.22;40.83;;;12.80;99.90;;;;;;5037540;28;20049;-73
2022/10/04 00:30:01;;;;;;;94.07;39.80;;;12.90;99.90;;;;;;5053780;28;20060;-73
2022/10/04 00:32:40;;;;;;;95.25;39.05;;;13.00;99.90;;;;;;5054438;28;20048;-73
2022/10/04 00:35:26;;;;;;;83.82;36.17;;;13.10;99.90;;;;;;5053653;28;20475;-73
2022/10/04 00:38:05;;;;;;;83.13;36.67;;;13.10;99.90;;;;;;5053571;28;20045;-73
2022/10/04 00:41:01;;;;;;;86.18;35.70;;;13.10;99.90;;;;;;5054835;28;20044;-73
2022/10/04 00:43:36;;;;;;;85.00;36.15;;;13.10;99.90;;;;;;5053608;28;20095;-73
2022/10/04 00:46:09;;;;;;;77.75;34.85;;;13.20;99.90;;;;;;5054819;28;20045;-73
2022/10/04 00:48:54;;;;;;;68.55;31.95;;;13.20;99.90;;;;;;5052730;28;20052;-73
2022/10/04 00:51:48;;;;;;;69.78;31.13;;;13.20;99.90;;;;;;5054121;28;20057;-73
2022/10/04 00:54:19;;;;;;;61.42;29.20;;;13.30;99.90;;;;;;5052795;28;20049;-73
2022/10/04 00:56:51;;;;;;;59.53;29.15;;;13.40;99.90;;;;;;5054454;28;20345;-73
2022/10/04 00:59:27;;;;;;;55.28;27.85;;;13.30;99.90;;;;;;5054697;28;20041;-73
2022/10/04 01:02:04;;;;;;;60.35;27.20;;;13.40;99.90;;;;;;5053780;28;20037;-73
2022/10/04 01:04:53;;;;;;;55.88;26.15;;;13.40;99.90;;;;;;5049846;28;20061;-73
2022/10/04 01:07:36;;;;;;;50.65;24.98;;;13.40;99.90;;;;;;5034380;28;20042;-73
2022/10/04 01:10:11;;;;;;;50.03;25.02;;;13.50;99.90;;;;;;5034526;28;20050;-73
2022/10/04 01:12:59;;;;;;;48.17;24.50;;;13.50;99.90;;;;;;5001332;28;20064;-73
2022/10/04 01:15:41;;;;;;;;;;;13.50;99.90;;;;;;5033764;28;20052;-73
2022/10/04 01:18:27;;;;;;;45.15;22.55;;;13.60;99.90;;;;;;5034325;28;20269;-73
2022/10/04 01:20:59;;;;;;;49.20;23.60;;;13.60;99.90;;;;;;5033724;28;20368;-73
2022/10/04 01:23:48;;;;;;;49.30;22.92;;;13.60;99.90;;;;;;5034707;28;20041;-73
2022/10/04 01:26:33;;;;;;;48.67;22.85;;;13.70;99.90;;;;;;5034706;28;20342;-74
2022/10/04 01:29:04;;;;;;;44.03;23.52;;;13.70;99.90;;;;;;5033582;28;20046;-73
2022/10/04 01:31:34;;;;;;;48.10;23.35;;;13.70;99.90;;;;;;5034423;28;20064;-73
2022/10/04 01:34:04;;;;;;;47.13;24.02;;;13.70;99.90;;;;;;5034358;28;20053;-73
2022/10/04 01:36:33;;;;;;;38.05;21.55;;;13.80;99.90;;;;;;5034312;28;20542;-73
2022/10/04 01:39:01;;;;;;;42.25;22.60;;;13.80;99.90;;;;;;5016970;28;20050;-73
2022/10/04 01:42:01;;;;;;;38.05;21.63;;;13.80;99.90;;;;;;5033030;28;20373;-73
2022/10/04 01:45:00;;;;;;;39.72;20.58;;;13.80;99.90;;;;;;5030746;28;20464;-73
2022/10/04 01:47:42;;;;;;;45.35;19.90;;;13.80;99.90;;;;;;5033559;28;20053;-73
2022/10/04 01:50:20;;;;;;;43.92;20.30;;;13.80;99.90;;;;;;5037385;28;20044;-73
2022/10/04 01:52:54;;;;;;;39.53;20.45;;;13.90;99.90;;;;;;5037983;28;20041;-73
2022/10/04 01:55:36;;;;;;;36.80;19.02;;;13.90;99.90;;;;;;5036773;28;20038;-73
2022/10/04 01:58:13;;;;;;;31.55;18.27;;;13.90;99.90;;;;;;5038073;28;20049;-73
2022/10/04 02:00:48;;;;;;;35.15;17.58;;;14.00;99.90;;;;;;5037882;28;20049;-73
2022/10/04 02:03:40;;;;;;;33.78;17.80;;;14.00;99.90;;;;;;5037778;28;20070;-73
2022/10/04 02:06:10;;;;;;;31.48;16.38;;;14.00;99.90;;;;;;5037357;28;20468;-73
2022/10/04 02:08:44;;;;;;;34.45;16.45;;;14.10;99.90;;;;;;5036272;28;20050;-73
2022/10/04 02:11:18;;;;;;;29.58;16.10;;;14.00;99.90;;;;;;5020517;28;20488;-73
2022/10/04 02:13:48;;;;;;;34.17;16.58;;;14.00;99.90;;;;;;5037499;28;20045;-73
2022/10/04 02:16:17;;;;;;;33.67;16.20;;;14.10;99.90;;;;;;5036305;28;20071;-73
2022/10/04 02:18:45;;;;;;;33.72;15.35;;;14.10;99.90;;;;;;5019904;28;20053;-73
2022/10/04 02:21:15;;;;;;;26.25;14.75;;;14.10;99.90;;;;;;5036059;28;20049;-73
2022/10/04 02:23:43;;;;;;;30.23;13.85;;;14.10;99.90;;;;;;5037452;28;20053;-73
2022/10/04 02:26:11;;;;;;;31.48;13.32;;;14.20;99.90;;;;;;5019966;28;20053;-73
2022/10/04 02:28:40;;;;;;;26.35;13.75;;;14.20;99.90;;;;;;5018703;28;20045;-73
2022/10/04 02:33:58;;;;;;;25.70;13.00;;;14.30;99.90;;;;;;5037282;28;20468;-73
2022/10/04 02:36:28;;;;;;;29.17;12.85;;;14.30;99.90;;;;;;5035988;28;20488;-73
2022/10/04 02:39:03;;;;;;;25.15;12.52;;;14.30;99.90;;;;;;5036777;28;20052;-73
2022/10/04 02:41:49;;;;;;;28.70;12.73;;;14.30;99.90;;;;;;5036137;28;20041;-73
2022/10/04 02:44:31;;;;;;;21.08;12.02;;;14.30;99.90;;;;;;5036882;28;20354;-73
2022/10/04 02:47:10;;;;;;;31.90;12.88;;;14.30;99.90;;;;;;5036993;28;20041;-73
2022/10/04 02:50:00;;;;;;;26.60;12.70;;;14.30;99.90;;;;;;5035775;28;20448;-73
2022/10/04 02:52:37;;;;;;;25.55;12.05;;;14.30;99.90;;;;;;5036979;28;20053;-73
2022/10/04 02:55:27;;;;;;;27.38;11.43;;;14.40;99.90;;;;;;5018473;28;20494;-73
2022/10/04 02:57:56;;;;;;;21.02;10.90;;;14.30;99.90;;;;;;5036761;28;20049;-73
2022/10/04 03:00:29;;;;;;;28.98;11.23;;;14.40;99.90;;;;;;5035850;28;20049;-73
2022/10/04 03:03:26;;;;;;;27.10;11.10;;;14.40;99.90;;;;;;5018172;28;20050;-73
2022/10/04 03:05:54;;;;;;;21.02;10.35;;;14.30;99.90;;;;;;5036133;28;20049;-74
2022/10/04 03:08:22;;;;;;;26.55;11.70;;;14.40;99.90;;;;;;5018392;28;20411;-73
2022/10/04 03:10:49;;;;;;;23.40;10.70;;;14.40;99.90;;;;;;5019061;28;20349;-73
2022/10/04 03:13:18;;;;;;;22.95;11.30;;;14.40;99.90;;;;;;5003161;28;20041;-73
2022/10/04 03:15:49;;;;;;;25.85;10.57;;;14.40;99.90;;;;;;5035402;28;20042;-73
2022/10/04 03:18:18;;;;;;;23.92;10.45;;;14.40;99.90;;;;;;5036346;28;20041;-73
2022/10/04 03:20:46;;;;;;;23.48;10.82;;;14.40;99.90;;;;;;5035544;28;20487;-73
2022/10/04 03:23:15;;;;;;;;;;;14.40;99.90;;;;;;5036351;28;20053;-73
2022/10/04 03:25:49;;;;;;;23.60;10.50;;;14.40;99.90;;;;;;5036513;28;19932;-73
2022/10/04 03:28:18;;;;;;;26.73;10.55;;;14.40;99.90;;;;;;5017642;28;20041;-74
2022/10/04 03:30:46;;;;;;;19.85;10.15;;;14.30;99.90;;;;;;5035945;28;20049;-73
2022/10/04 03:33:24;;;;;;;22.83;9.85;;;14.40;99.90;;;;;;5018326;28;20057;-73
2022/10/04 03:35:55;;;;;;;24.73;9.55;;;14.40;99.90;;;;;;5017573;28;20046;-73
2022/10/04 03:38:25;;;;;;;22.73;9.80;;;14.40;99.90;;;;;;5036066;28;20050;-73
2022/10/04 03:41:00;;;;;;;19.85;8.95;;;14.40;99.90;;;;;;5034779;28;20046;-73
2022/10/04 03:43:30;;;;;;;22.55;9.52;;;14.40;99.90;;;;;;5035794;28;20045;-73
2022/10/04 03:46:00;;;;;;;21.55;8.73;;;14.40;99.90;;;;;;5036053;28;20041;-73
2022/10/04 03:48:32;;;;;;;21.90;9.30;;;14.50;99.90;;;;;;5034433;28;20050;-73
2022/10/04 03:51:05;;;;;;;17.48;8.25;;;14.50;99.90;;;;;;5018507;28;20041;-73
2022/10/04 03:53:41;;;;;;;18.58;8.15;;;14.50;99.90;;;;;;5035682;28;20483;-73
2022/10/04 03:56:28;;;;;;;24.88;8.15;;;14.50;99.90;;;;;;5034354;28;20045;-73
2022/10/04 03:58:57;;;;;;;22.02;7.78;;;14.50;99.90;;;;;;5035837;28;20464;-73
2022/10/04 04:01:36;;;;;;;24.23;7.05;;;14.60;99.90;;;;;;5017116;28;20040;-73
2022/10/04 04:04:23;;;;;;;20.17;6.78;;;14.60;99.90;;;;;;5035381;28;20054;-73
2022/10/04 04:07:34;;;;;;;18.50;6.75;;;14.50;99.90;;;;;;5035525;28;20352;-73
2022/10/04 04:10:05;;;;;;;18.08;6.80;;;14.60;99.90;;;;;;5035247;28;20068;-73
2022/10/04 04:12:56;;;;;;;19.75;7.38;;;14.60;99.90;;;;;;5034855;28;20048;-73
2022/10/04 04:15:30;;;;;;;21.40;7.15;;;14.60;99.90;;;;;;5017189;28;20053;-73
2022/10/04 04:18:09;;;;;;;15.32;6.82;;;14.60;99.90;;;;;;5018073;28;20353;-73
2022/10/04 04:20:37;;;;;;;23.45;6.60;;;14.60;99.90;;;;;;5035052;28;20048;-73
2022/10/04 04:23:05;;;;;;;19.17;6.40;;;14.70;99.90;;;;;;5033900;28;20048;-73
2022/10/04 04:25:36;;;;;;;19.77;6.20;;;14.70;99.90;;;;;;5018215;28;20049;-73
2022/10/04 04:28:43;;;;;;;19.55;6.30;;;14.70;99.90;;;;;;5034447;28;20052;-73
2022/10/04 04:31:19;;;;;;;21.88;6.75;;;14.80;99.90;;;;;;5035291;28;20046;-73
2022/10/04 04:33:58;;;;;;;18.33;6.32;;;14.70;99.90;;;;;;5035423;28;20082;-73
2022/10/04 04:36:27;;;;;;;20.50;6.28;;;14.80;99.90;;;;;;5033750;28;20056;-73
2022/10/04 04:42:17;;;;;;;23.27;7.03;;;14.80;99.90;;;;;;5033596;28;20041;-73
2022/10/04 04:44:50;;;;;;;21.17;6.82;;;14.80;99.90;;;;;;5035111;28;20045;-73
2022/10/04 04:47:43;;;;;;;21.00;6.18;;;14.90;99.90;;;;;;5034938;28;20042;-73
2022/10/04 04:50:23;;;;;;;19.40;6.25;;;14.90;99.90;;;;;;5034628;28;20075;-73
2022/10/04 04:53:18;;;;;;;18.10;6.07;;;14.90;99.90;;;;;;5035074;28;20049;-73
2022/10/04 04:55:54;;;;;;;16.08;5.53;;;14.90;99.90;;;;;;5033640;28;20045;-73
2022/10/04 04:58:44;;;;;;;21.70;6.47;;;15.00;99.90;;;;;;5034487;28;20045;-73
2022/10/04 05:01:43;;;;;;;20.63;6.30;;;15.00;99.90;;;;;;5000328;28;20050;-73
2022/10/04 05:04:12;;;;;;;16.75;5.90;;;14.90;99.90;;;;;;5017358;28;20060;-73
2022/10/04 05:06:45;;;;;;;17.52;6.03;;;15.00;99.90;;;;;;5017129;28;20041;-73
2022/10/04 05:09:27;;;;;;;17.05;5.38;;;15.00;99.90;;;;;;5033638;28;20041;-73
2022/10/04 05:12:04;;;;;;;15.80;5.60;;;15.00;99.90;;;;;;5034871;28;20049;-73
2022/10/04 05:14:31;;;;;;;22.77;5.70;;;15.00;99.90;;;;;;5033631;28;20046;-73
2022/10/04 05:16:59;;;;;;;17.33;6.00;;;15.00;99.90;;;;;;5034616;28;20360;-73
2022/10/04 05:19:31;;;;;;;18.92;5.55;;;15.00;99.90;;;;;;5016958;28;20049;-73
2022/10/04 05:22:05;;;;;;;21.50;6.00;;;15.00;99.90;;;;;;5033684;28;20056;-73
2022/10/04 05:24:44;;;;;;;20.40;5.70;;;15.00;99.90;;;;;;5036798;28;20046;-73
2022/10/04 05:27:24;;;;;;;16.52;5.53;;;15.00;99.90;;;;;;5021428;28;20479;-73
2022/10/04 05:30:00;;;;;;;16.20;5.43;;;14.90;99.90;;;;;;5020964;28;20056;-73
2022/10/04 05:33:13;;;;;;;16.58;5.50;;;14.90;99.90;;;;;;5020385;28;20053;-73
2022/10/04 05:35:46;;;;;;;17.17;5.47;;;14.90;99.90;;;;;;5036991;28;20050;-73
2022/10/04 05:38:41;;;;;;;14.20;5.32;;;14.80;99.90;;;;;;5037985;28;20061;-73
2022/10/04 05:41:24;;;;;;;14.10;4.90;;;14.80;99.90;;;;;;5037174;28;20046;-73
2022/10/04 05:43:56;;;;;;;15.95;5.07;;;14.70;99.90;;;;;;5037987;28;20068;-73
2022/10/04 05:46:32;;;;;;;18.52;4.95;;;14.70;99.90;;;;;;5020591;28;20045;-73
2022/10/04 05:49:07;;;;;;;15.70;4.90;;;14.70;99.90;;;;;;5019634;28;20060;-72
2022/10/04 05:51:52;;;;;;;15.75;5.35;;;14.60;99.90;;;;;;5020701;28;20056;-73
2022/10/04 05:54:23;;;;;;;15.18;5.38;;;14.50;99.90;;;;;;5019452;28;20049;-71
2022/10/04 05:57:09;;;;;;;11.38;4.60;;;14.40;99.90;;;;;;5037547;28;20049;-74
2022/10/04 06:00:08;;;;;;;12.20;4.20;;;14.40;99.90;;;;;;5036492;28;20057;-73
2022/10/04 06:03:15;;;;;;;9.20;3.72;;;14.40;99.90;;;;;;5019212;28;20045;-70
2022/10/04 06:05:49;;;;;;;13.18;4.20;;;14.30;99.90;;;;;;5037531;28;20045;-73
2022/10/04 06:08:27;;;;;;;11.57;3.30;;;14.30;99.90;;;;;;5019461;28;20046;-72
2022/10/04 06:11:28;;;;;;;13.52;4.07;;;14.30;99.90;;;;;;5037616;28;20060;-74
2022/10/04 06:14:09;;;;;;;11.98;3.70;;;14.30;99.90;;;;;;5004416;28;20161;-71
2022/10/04 06:17:04;;;;;;;11.68;3.30;;;14.30;99.90;;;;;;5020344;28;20053;-74
2022/10/04 06:19:47;;;;;;;9.05;3.05;;;14.30;99.90;;;;;;5037027;28;20060;-73
2022/10/04 06:22:21;;;;;;;7.20;2.72;;;14.30;99.90;;;;;;5036447;28;20053;-73
2022/10/04 06:25:05;;;;;;;13.23;2.88;;;14.40;99.90;;;;;;5037233;28;20056;-72
2022/10/04 06:28:08;;;;;;;7.22;2.83;;;14.40;99.90;;;;;;5019000;28;20053;-73
2022/10/04 06:31:03;;;;;;;9.30;2.80;;;14.40;99.90;;;;;;4986968;28;20049;-73
2022/10/04 06:34:02;;;;;;;9.32;2.03;;;14.50;99.90;;;;;;5002325;28;20056;-71
2022/10/04 06:36:51;;;;;;;7.93;2.30;;;14.50;99.90;;;;;;5035708;28;20041;-71
2022/10/04 06:39:40;;;;;;;8.85;2.55;;;14.60;99.90;;;;;;5037545;28;20372;-71
2022/10/04 06:42:20;;;;;;;11.35;1.95;;;14.60;99.90;;;;;;5035947;28;20049;-73
2022/10/04 06:45:04;;;;;;;7.20;2.35;;;14.70;99.90;;;;;;5019717;28;20048;-71
2022/10/04 06:48:06;;;;;;;9.73;2.25;;;14.70;99.90;;;;;;5002404;28;20045;-73
2022/10/04 06:50:51;;;;;;;9.32;2.15;;;14.70;99.90;;;;;;5036979;28;20041;-73
2022/10/04 06:53:49;;;;;;;9.60;2.30;;;14.80;99.90;;;;;;5036897;28;20057;-72
2022/10/04 06:56:30;;;;;;;11.07;2.75;;;14.80;99.90;;;;;;5016874;28;20050;-71
2022/10/04 06:58:58;;;;;;;9.40;2.42;;;14.90;99.90;;;;;;4999994;28;20381;-71
2022/10/04 07:01:31;;;;;;;7.22;2.10;;;14.90;99.90;;;;;;5015137;28;20045;-69
2022/10/04 07:04:11;;;;;;;8.93;2.00;;;15.00;99.90;;;;;;5016471;28;20042;-74
2022/10/04 07:06:51;;;;;;;7.70;1.83;;;15.00;99.90;;;;;;5016386;28;20037;-71
2022/10/04 07:09:24;;;;;;;10.65;1.83;;;15.10;99.90;;;;;;4998503;28;20049;-71
2022/10/04 07:12:06;;;;;;;9.13;2.17;;;15.10;99.90;;;;;;5016204;28;20346;-70
2022/10/04 07:14:42;;;;;;;6.45;1.95;;;15.20;99.90;;;;;;4981954;28;20050;-71
2022/10/04 07:17:23;;;;;;;7.50;2.00;;;15.20;99.90;;;;;;5016149;28;20121;-71
2022/10/04 07:19:53;;;;;;;7.60;1.65;;;15.30;99.90;;;;;;5016228;28;20050;-71
2022/10/04 07:22:31;;;;;;;7.07;1.70;;;15.40;99.90;;;;;;5014904;28;20046;-71
2022/10/04 07:24:58;;;;;;;4.13;1.70;;;15.40;99.90;;;;;;4998957;28;20053;-71
2022/10/04 07:27:29;;;;;;;5.70;1.80;;;15.40;99.90;;;;;;4998797;28;20038;-71
2022/10/04 07:30:07;;;;;;;5.47;1.58;;;15.40;99.90;;;;;;5016068;28;20064;-71
2022/10/04 07:32:37;;;;;;;5.63;1.70;;;15.40;99.90;;;;;;5015871;28;20057;-71
2022/10/04 07:35:33;;;;;;;7.43;1.80;;;15.50;99.90;;;;;;5014674;28;20056;-71
2022/10/04 07:38:17;;;;;;;5.15;1.50;;;15.50;99.90;;;;;;5026375;28;20050;-76
2022/10/04 07:41:20;;;;;;;6.72;1.40;;;15.50;99.90;;;;;;5013861;28;20050;-72
2022/10/04 07:43:50;;;;;;;7.15;1.80;;;15.50;99.90;;;;;;4998984;28;20045;-71
2022/10/04 07:46:23;;;;;;;6.25;1.60;;;15.50;99.90;;;;;;4998527;28;20054;-72
2022/10/04 07:48:51;;;;;;;9.65;1.45;;;15.60;99.90;;;;;;4997985;28;20057;-71
2022/10/04 07:51:31;;;;;;;6.97;1.45;;;15.60;99.90;;;;;;5016452;28;20049;-72
2022/10/04 07:54:09;;;;;;;6.15;1.67;;;15.70;99.90;;;;;;4998981;28;20054;-72
2022/10/04 07:56:51;;;;;;;13.18;1.60;;;15.80;99.90;;;;;;5016049;28;20046;-72
2022/10/04 08:00:01;;;;;;;7.68;1.60;;;15.80;99.90;;;;;;5015887;28;20046;-71
2022/10/04 08:03:08;;;;;;;5.93;1.60;;;15.90;99.90;;;;;;5007180;28;20058;-72
2022/10/04 08:05:41;;;;;;;10.73;1.50;;;16.10;99.90;;;;;;5015507;28;20057;-72
2022/10/04 08:08:28;;;;;;;8.77;2.00;;;16.20;99.90;;;;;;5014874;28;20049;-71
2022/10/04 08:11:09;;;;;;;7.72;1.50;;;16.30;99.90;;;;;;4982524;28;20507;-71
2022/10/04 08:13:49;;;;;;;5.18;1.40;;;16.40;99.90;;;;;;4998609;28;20042;-71
2022/10/04 08:16:40;;;;;;;5.05;1.30;;;16.50;99.90;;;;;;5015030;28;20049;-72
2022/10/04 08:19:34;;;;;;;4.28;1.45;;;16.60;99.90;;;;;;5015701;28;20049;-72
2022/10/04 08:22:16;;;;;;;3.22;1.10;;;16.70;99.90;;;;;;5014345;28;20053;-71
2022/10/04 08:24:58;;;;;;;5.53;1.15;;;16.80;99.90;;;;;;5015938;28;20042;-72
2022/10/04 08:29:41;;;;;;;4.18;1.23;;;16.80;99.90;;;;;;5015426;28;20449;-72
2022/10/04 08:31:00;;;;;;;4.82;1.13;;;16.80;99.90;;;;;;4997897;28;20077;-72
2022/10/04 08:33:51;;;;;;;5.43;1.30;;;16.80;99.90;;;;;;5015298;28;20042;-72
2022/10/04 08:36:54;;;;;;;7.07;1.27;;;16.80;99.90;;;;;;4965130;28;20037;-71
2022/10/04 08:39:54;;;;;;;6.72;1.30;;;16.80;99.90;;;;;;4998418;28;20365;-71
2022/10/04 08:42:56;;;;;;;4.65;1.10;;;16.80;99.90;;;;;;4996924;28;20049;-71
2022/10/04 08:45:57;;;;;;;4.65;1.10;;;16.80;99.90;;;;;;5009598;28;20050;-72
2022/10/04 08:49:08;;;;;;;8.32;1.38;;;16.70;99.90;;;;;;5013824;28;20046;-73
2022/10/04 08:51:49;;;;;;;8.05;1.40;;;16.70;99.90;;;;;;4998114;28;20372;-72
2022/10/04 08:54:45;;;;;;;5.70;1.45;;;16.70;99.90;;;;;;4997407;28;20061;-73
2022/10/04 08:57:35;;;;;;;8.15;1.60;;;16.70;99.90;;;;;;5015376;28;20050;-72
2022/10/04 09:00:08;;;;;;;8.82;1.45;;;16.60;99.90;;;;;;5018715;28;20061;-73
2022/10/04 09:03:06;;;;;;;7.10;1.38;;;16.60;99.90;;;;;;5017704;28;20050;-73
2022/10/04 09:05:55;;;;;;;9.13;1.50;;;16.50;99.90;;;;;;5023854;28;20054;-73
2022/10/04 09:09:12;;;;;;;2.63;1.23;;;16.50;99.90;;;;;;5036769;28;20049;-73
2022/10/04 09:12:14;;;;;;;6.45;1.23;;;16.40;99.90;;;;;;5038323;28;20056;-74
2022/10/04 09:15:03;;;;;;;6.38;1.30;;;16.40;99.90;;;;;;5037448;28;20052;-72
2022/10/04 09:17:46;;;;;;;7.43;1.45;;;16.30;99.90;;;;;;5038246;28;20380;-72
2022/10/04 09:20:39;;;;;;;6.93;1.38;;;16.30;99.90;;;;;;5037548;28;20053;-76
2022/10/04 09:23:33;;;;;;;5.90;1.30;;;16.20;99.90;;;;;;5037150;28;20058;-74
2022/10/04 09:26:12;;;;;;;4.03;1.13;;;16.20;99.90;;;;;;5028274;28;20056;-73
2022/10/04 09:29:12;;;;;;;5.60;1.20;;;16.20;99.90;;;;;;5037262;28;20045;-73
2022/10/04 09:31:57;;;;;;;7.38;1.02;;;16.20;99.90;;;;;;5037764;28;20376;-72
2022/10/04 09:34:41;;;;;;;4.40;1.20;;;16.30;99.90;;;;;;5037242;28;20042;-74
2022/10/04 09:37:32;;;;;;;6.35;1.38;;;16.30;99.90;;;;;;5053561;28;20056;-82
2022/10/04 09:40:19;;;;;;;6.97;1.20;;;16.40;99.90;;;;;;5037962;28;20049;-73
2022/10/04 09:43:10;;;;;;;3.20;1.00;;;16.40;99.90;;;;;;5036898;28;20172;-75
2022/10/04 09:46:04;;;;;;;3.95;1.00;;;16.50;99.90;;;;;;5037549;28;20045;-73
2022/10/04 09:48:52;;;;;;;3.17;1.13;;;16.60;99.90;;;;;;5036193;28;20045;-73
2022/10/04 09:51:41;;;;;;;3.35;1.00;;;16.60;99.90;;;;;;5036848;28;20396;-73
2022/10/04 09:54:45;;;;;;;4.85;0.95;;;16.80;99.90;;;;;;5036407;28;20057;-73
2022/10/04 09:57:19;;;;;;;3.35;1.05;;;16.90;99.90;;;;;;5036583;28;20472;-73
2022/10/04 10:00:01;;;;;;;3.75;1.20;;;17.00;99.90;;;;;;5036287;28;20396;-73
2022/10/04 10:02:46;;;;;;;3.85;1.10;;;17.10;99.90;;;;;;5036338;28;20046;-73
2022/10/04 10:05:35;;;;;;;6.50;1.25;;;17.20;99.90;;;;;;5027144;28;20042;-73
2022/10/04 10:08:06;;;;;;;3.15;1.10;;;17.20;99.90;;;;;;5016426;28;20053;-74
2022/10/04 10:14:06;;;;;;;3.22;1.10;;;17.40;99.90;;;;;;5017379;28;20057;-73
2022/10/04 10:16:41;;;;;;;4.43;1.00;;;17.60;99.90;;;;;;5000374;28;20465;-74
2022/10/04 10:19:26;;;;;;;3.30;0.90;;;17.80;99.90;;;;;;4999709;28;20049;-74
2022/10/04 10:21:54;;;;;;;4.40;0.90;;;17.90;99.90;;;;;;5016204;28;20041;-74
2022/10/04 10:24:53;;;;;;;4.07;0.98;;;17.90;99.90;;;;;;5017207;28;20381;-74
2022/10/04 10:27:30;;;;;;;20.85;5.18;;;17.70;99.90;;;;;;5017404;28;20050;-74
2022/10/04 10:30:17;;;;;;;7.80;1.90;;;17.60;99.90;;;;;;5016941;28;20038;-74
2022/10/04 10:33:06;;;;;;;2.17;0.70;;;17.60;99.90;;;;;;5016996;28;20050;-73
2022/10/04 10:35:59;;;;;;;8.27;2.55;;;17.60;99.90;;;;;;5032957;28;21813;-74
2022/10/04 10:38:48;;;;;;;2.88;0.68;;;17.70;99.90;;;;;;5014554;28;20045;-74
2022/10/04 10:41:37;;;;;;;4.78;0.82;;;17.90;99.90;;;;;;4999390;28;20065;-73
2022/10/04 10:44:25;;;;;;;11.02;2.00;;;18.10;99.90;;;;;;4999278;28;20057;-73
2022/10/04 10:46:57;;;;;;;;;;;18.30;99.90;;;;;;5017790;28;20385;-73
2022/10/04 10:49:43;;;;;;;8.43;2.05;;;18.50;99.90;;;;;;4967125;28;19925;-74
2022/10/04 10:52:53;;;;;;;9.25;2.20;;;18.60;99.90;;;;;;4999981;28;20357;-73
2022/10/04 10:56:07;;;;;;;7.60;1.35;;;18.80;99.90;;;;;;5011622;28;20472;-73
2022/10/04 10:59:22;;;;;;;4.38;1.00;;;18.90;99.90;;;;;;5001280;28;20064;-73
2022/10/04 11:02:35;;;;;;;10.00;2.60;;;19.00;99.90;;;;;;4959810;28;20057;-74
2022/10/04 11:05:44;;;;;;;5.40;0.68;;;19.10;99.90;;;;;;5031973;28;20553;-73
2022/10/04 11:08:47;;;;;;;5.25;0.98;;;19.20;99.90;;;;;;5055160;28;20044;-73
2022/10/04 11:11:33;;;;;;;3.83;0.90;;;19.30;99.90;;;;;;5055439;28;20468;-71
2022/10/04 11:14:31;;;;;;;3.97;0.80;;;19.30;99.90;;;;;;5056467;28;20045;-73
2022/10/04 11:17:32;;;;;;;4.40;1.40;;;19.30;99.90;;;;;;5055478;28;20055;-73
2022/10/04 11:20:27;;;;;;;6.55;1.20;;;19.30;99.90;;;;;;5018697;28;20049;-72
2022/10/04 11:23:17;;;;;;;3.22;0.43;;;19.40;99.90;;;;;;5033487;28;20052;-73
2022/10/04 11:25:47;;;;;;;1.88;0.47;;;19.50;99.90;;;;;;5036201;28;20053;-75
2022/10/04 11:28:25;;;;;;;5.10;1.00;;;19.60;99.90;;;;;;5039994;28;20060;-74
2022/10/04 11:31:11;;;;;;;;;;;19.60;99.60;;;;;;5048610;28;20041;-73
2022/10/04 11:33:58;;;;;;;3.58;1.02;;;19.60;99.30;;;;;;5034486;28;19921;-73
2022/10/04 11:36:41;;;;;;;4.05;0.63;;;19.40;99.70;;;;;;5033656;28;20048;-73
2022/10/04 11:39:24;;;;;;;3.13;0.98;;;19.30;99.60;;;;;;5036259;28;20380;-74
2022/10/04 11:42:10;;;;;;;5.85;1.23;;;19.20;99.70;;;;;;5033874;28;20052;-73
2022/10/04 11:45:00;;;;;;;5.80;1.60;;;19.10;99.80;;;;;;5018705;28;20049;-73
2022/10/04 11:48:10;;;;;;;3.78;0.88;;;19.00;99.90;;;;;;5034804;28;20053;-73
2022/10/04 11:50:59;;;;;;;4.47;1.02;;;19.00;99.60;;;;;;5035643;28;20045;-72
2022/10/04 11:53:29;;;;;;;3.83;0.77;;;18.90;99.50;;;;;;5035962;28;20056;-72
2022/10/04 11:56:41;;;;;;;6.88;1.00;;;18.80;99.70;;;;;;5039757;28;20060;-72
2022/10/04 11:59:26;;;;;;;6.55;1.00;;;18.80;99.80;;;;;;5015568;28;20057;-72
2022/10/04 12:02:27;;;;;;;5.85;1.40;;;19.00;99.90;;;;;;5041597;28;20045;-72
2022/10/04 12:05:06;;;;;;;8.25;1.17;;;19.10;99.80;;;;;;5044635;28;20053;-72
2022/10/04 12:07:41;;;;;;;6.00;1.20;;;19.10;99.60;;;;;;5044444;28;20049;-71
2022/10/04 12:10:21;;;;;;;8.25;1.40;;;19.20;99.90;;;;;;5043622;28;20057;-72
2022/10/04 12:12:52;;;;;;;5.28;1.13;;;19.40;99.90;;;;;;5044442;28;20389;-72
2022/10/04 12:15:57;;;;;;;5.30;1.20;;;19.50;99.60;;;;;;5051141;28;20044;-72
2022/10/04 12:18:43;;;;;;;8.35;1.50;;;19.50;99.40;;;;;;5054758;28;20053;-72
2022/10/04 12:21:53;;;;;;;7.70;1.35;;;19.40;99.40;;;;;;5050236;28;20049;-72
2022/10/04 12:24:21;;;;;;;5.10;1.42;;;19.20;99.40;;;;;;5009805;28;20049;-72
2022/10/04 12:27:26;;;;;;;7.13;2.25;;;19.10;99.60;;;;;;5035213;28;20472;-72
2022/10/04 12:30:14;;;;;;;6.38;2.08;;;19.00;99.80;;;;;;5035012;28;20471;-72
2022/10/04 12:32:57;;;;;;;4.88;1.20;;;19.00;99.90;;;;;;5017755;28;20045;-72
2022/10/04 12:35:53;;;;;;;4.75;1.20;;;19.00;99.90;;;;;;5032791;28;20477;-72
2022/10/04 12:38:37;;;;;;;7.47;1.10;;;19.00;99.70;;;;;;5034160;28;20045;-72
2022/10/04 12:41:32;;;;;;;4.85;1.20;;;18.90;99.70;;;;;;5032732;28;20057;-72
2022/10/04 12:44:24;;;;;;;4.60;1.20;;;18.80;99.80;;;;;;5034589;28;20060;-72
2022/10/04 12:47:28;;;;;;;4.70;0.90;;;18.80;99.90;;;;;;5033999;28;20353;-72
2022/10/04 12:50:08;;;;;;;4.45;1.20;;;18.70;99.90;;;;;;5034732;28;20376;-71
2022/10/04 12:52:52;;;;;;;9.18;1.20;;;18.60;99.90;;;;;;5035200;28;20053;-72
2022/10/04 12:55:25;;;;;;;6.65;1.20;;;18.60;99.90;;;;;;5033547;28;20049;-72
2022/10/04 12:58:02;;;;;;;4.45;1.10;;;18.50;99.90;;;;;;5035044;28;20460;-72
2022/10/04 13:00:40;;;;;;;6.85;1.40;;;18.40;99.90;;;;;;5035042;28;20057;-72
2022/10/04 13:03:26;;;;;;;5.45;1.38;;;18.30;99.90;;;;;;5033414;28;20045;-73
2022/10/04 13:06:15;;;;;;;8.40;1.08;;;18.30;99.90;;;;;;5019012;28;20050;-72
2022/10/04 13:08:58;;;;;;;5.60;1.10;;;18.40;99.90;;;;;;5013912;28;20050;-72
2022/10/04 13:11:44;;;;;;;6.47;1.20;;;18.40;99.90;;;;;;5014943;28;20365;-73
2022/10/04 13:14:33;;;;;;;5.72;1.20;;;18.40;99.90;;;;;;5013894;28;20049;-72
2022/10/04 13:17:31;;;;;;;5.85;1.30;;;18.40;99.90;;;;;;5015063;28;20073;-73
2022/10/04 13:20:16;;;;;;;6.32;1.10;;;18.40;99.90;;;;;;5014830;28;20380;-73
2022/10/04 13:23:26;;;;;;;7.07;1.15;;;18.40;99.90;;;;;;5013501;28;20053;-72
2022/10/04 13:26:14;;;;;;;4.75;1.17;;;18.30;99.90;;;;;;5014795;28;20057;-72
2022/10/04 13:29:01;;;;;;;7.22;1.40;;;18.30;99.90;;;;;;4996275;28;20065;-72
2022/10/04 13:31:54;;;;;;;4.95;0.98;;;18.30;99.90;;;;;;4997430;28;20049;-73
2022/10/04 13:34:25;;;;;;;4.10;1.23;;;18.40;99.90;;;;;;5013778;28;20058;-73
2022/10/04 13:37:29;;;;;;;6.57;0.95;;;18.60;99.90;;;;;;5014765;28;20049;-73
2022/10/04 13:40:05;;;;;;;5.97;1.10;;;18.80;99.90;;;;;;4997980;28;20057;-73
2022/10/04 13:42:57;;;;;;;6.75;1.20;;;19.00;99.90;;;;;;5013584;28;20057;-72
2022/10/04 13:45:56;;;;;;;5.50;1.10;;;19.20;99.90;;;;;;4983633;28;20061;-72
2022/10/04 13:48:41;;;;;;;8.02;1.10;;;19.30;99.90;;;;;;5017452;28;20354;-72
2022/10/04 13:51:38;;;;;;;8.90;1.20;;;19.50;99.90;;;;;;5018349;28;20045;-72
2022/10/04 13:57:39;;;;;;;9.18;1.35;;;19.60;99.90;;;;;;5018120;28;20053;-72
2022/10/04 14:00:13;;;;;;;8.30;1.30;;;19.50;99.90;;;;;;5017970;28;20049;-73
2022/10/04 14:02:59;;;;;;;9.75;1.52;;;19.40;99.90;;;;;;5016773;28;20057;-72
2022/10/04 14:06:11;;;;;;;8.77;1.70;;;19.30;99.90;;;;;;5017909;28;20054;-73
2022/10/04 14:08:47;;;;;;;9.20;1.60;;;19.30;99.90;;;;;;4999548;28;20054;-72
2022/10/04 14:11:42;;;;;;;6.65;1.67;;;19.20;99.90;;;;;;5017776;28;20453;-72
2022/10/04 14:14:32;;;;;;;10.02;1.80;;;19.20;99.90;;;;;;5016858;28;20061;-72
2022/10/04 14:17:21;;;;;;;5.15;1.33;;;19.10;99.90;;;;;;5017866;28;20053;-72